createdAt,value
2023-04-17T00:02:13.406Z,2.83
2023-04-17T00:04:41.013Z,3.70
2023-04-17T00:07:08.734Z,3.13
2023-04-17T00:09:36.426Z,3.40
2023-04-17T00:12:03.861Z,3.35
2023-04-17T00:14:31.105Z,4.32
2023-04-17T00:16:58.284Z,6.22
2023-04-17T00:19:25.780Z,3.50
2023-04-17T00:21:52.988Z,3.67
2023-04-17T00:24:20.217Z,4.07
2023-04-17T00:26:47.315Z,5.93
2023-04-17T00:29:14.518Z,2.70
2023-04-17T00:31:41.830Z,3.03
2023-04-17T00:34:09.039Z,3.47
2023-04-17T00:36:36.198Z,2.15
2023-04-17T00:39:03.447Z,4.45
2023-04-17T00:41:30.926Z,5.50
2023-04-17T00:43:58.205Z,5.18
2023-04-17T00:46:25.476Z,5.93
2023-04-17T00:48:53.019Z,3.13
2023-04-17T00:51:20.204Z,5.03
2023-04-17T00:53:47.924Z,6.25
2023-04-17T00:56:15.192Z,5.45
2023-04-17T00:58:42.570Z,4.57
2023-04-17T01:01:09.787Z,4.95
2023-04-17T01:03:37.648Z,2.75
2023-04-17T01:06:05.869Z,3.92
2023-04-17T01:08:42.086Z,8.75
2023-04-17T01:11:10.409Z,4.03
2023-04-17T01:13:48.751Z,5.65
2023-04-17T01:16:17.713Z,6.30
2023-04-17T01:18:47.508Z,7.35
2023-04-17T01:21:15.163Z,4.53
2023-04-17T01:23:50.028Z,8.43
2023-04-17T01:26:22.691Z,8.02
2023-04-17T01:28:54.825Z,7.40
2023-04-17T01:31:22.610Z,3.50
2023-04-17T01:33:51.477Z,6.20
2023-04-17T01:36:19.020Z,5.55
2023-04-17T01:38:46.272Z,5.95
2023-04-17T01:41:13.565Z,6.07
2023-04-17T01:43:43.189Z,5.05
2023-04-17T01:46:10.880Z,4.30
2023-04-17T01:48:38.649Z,3.92
2023-04-17T01:51:06.517Z,5.95
2023-04-17T01:53:34.774Z,7.25
2023-04-17T01:56:02.137Z,5.10
2023-04-17T01:58:30.457Z,6.65
2023-04-17T02:00:57.887Z,3.88
2023-04-17T02:03:25.404Z,5.55
2023-04-17T02:05:53.778Z,10.00
2023-04-17T02:08:21.209Z,8.50
2023-04-17T02:10:48.444Z,10.43
2023-04-17T02:13:16.091Z,12.43
2023-04-17T02:15:43.728Z,12.68
2023-04-17T02:18:11.287Z,10.77
2023-04-17T02:20:38.957Z,11.32
2023-04-17T02:23:07.081Z,11.27
2023-04-17T02:25:34.660Z,12.32
2023-04-17T02:28:02.138Z,16.92
2023-04-17T02:30:29.426Z,15.52
2023-04-17T02:32:58.339Z,13.80
2023-04-17T02:35:29.201Z,13.93
2023-04-17T02:37:57.939Z,13.85
2023-04-17T02:40:25.153Z,19.33
2023-04-17T02:42:59.565Z,16.90
2023-04-17T02:45:26.827Z,16.35
2023-04-17T02:47:54.293Z,14.05
2023-04-17T02:50:21.643Z,19.45
2023-04-17T02:53:03.438Z,20.48
2023-04-17T02:55:30.917Z,21.15
2023-04-17T02:57:58.260Z,17.92
2023-04-17T03:00:26.417Z,18.92
2023-04-17T03:02:54.081Z,22.67
2023-04-17T03:05:23.435Z,18.73
2023-04-17T03:07:52.200Z,21.55
2023-04-17T03:10:19.625Z,18.92
2023-04-17T03:12:47.377Z,20.08
2023-04-17T03:15:14.739Z,20.60
2023-04-17T03:17:42.762Z,19.17
2023-04-17T03:20:10.168Z,20.20
2023-04-17T03:22:37.491Z,21.98
2023-04-17T03:25:06.961Z,21.00
2023-04-17T03:27:52.825Z,19.08
2023-04-17T03:30:22.672Z,28.95
2023-04-17T03:32:51.898Z,21.08
2023-04-17T03:35:19.084Z,21.92
2023-04-17T03:37:46.259Z,22.33
2023-04-17T03:40:14.392Z,24.77
2023-04-17T03:42:44.196Z,20.90
2023-04-17T03:45:11.557Z,20.55
2023-04-17T03:47:39.071Z,21.77
2023-04-17T03:50:07.160Z,21.63
2023-04-17T03:52:39.829Z,20.27
2023-04-17T03:55:08.450Z,25.98
2023-04-17T03:57:35.909Z,20.17
2023-04-17T04:00:07.012Z,21.40
2023-04-17T04:02:46.576Z,22.85
2023-04-17T04:05:17.266Z,23.23
2023-04-17T04:07:44.491Z,32.70
2023-04-17T04:10:14.901Z,21.20
2023-04-17T04:12:42.193Z,25.65
2023-04-17T04:15:09.842Z,29.67
2023-04-17T04:17:37.863Z,25.42
2023-04-17T04:20:08.787Z,23.77
2023-04-17T04:22:36.229Z,19.95
2023-04-17T04:25:03.598Z,25.58
2023-04-17T04:27:49.808Z,21.75
2023-04-17T04:30:22.209Z,24.85
2023-04-17T04:32:52.307Z,24.15
2023-04-17T04:35:19.566Z,22.02
2023-04-17T04:37:46.829Z,25.35
2023-04-17T04:40:14.885Z,28.08
2023-04-17T04:42:42.643Z,29.00
2023-04-17T04:45:16.506Z,29.15
2023-04-17T04:47:45.071Z,26.33
2023-04-17T04:50:12.786Z,26.45
2023-04-17T04:52:40.062Z,33.38
2023-04-17T04:57:54.244Z,28.77
2023-04-17T05:00:23.860Z,31.77
2023-04-17T05:05:25.572Z,28.48
2023-04-17T05:07:55.105Z,28.08
2023-04-17T05:10:26.039Z,30.77
2023-04-17T05:12:58.702Z,24.58
2023-04-17T05:15:26.054Z,22.88
2023-04-17T05:17:53.827Z,27.98
2023-04-17T05:20:21.613Z,21.15
2023-04-17T05:22:54.091Z,26.90
2023-04-17T05:25:22.717Z,22.20
2023-04-17T05:27:50.384Z,21.83
2023-04-17T05:30:18.336Z,26.05
2023-04-17T05:32:50.803Z,22.95
2023-04-17T05:35:31.332Z,25.10
2023-04-17T05:37:59.675Z,26.50
2023-04-17T05:40:26.915Z,23.45
2023-04-17T05:42:54.173Z,23.02
2023-04-17T05:45:23.451Z,23.80
2023-04-17T05:47:52.195Z,30.80
2023-04-17T05:50:19.436Z,23.55
2023-04-17T05:52:48.397Z,26.45
2023-04-17T05:55:16.454Z,24.42
2023-04-17T05:57:44.055Z,22.75
2023-04-17T06:00:13.197Z,24.85
2023-04-17T06:02:47.358Z,25.25
2023-04-17T06:05:23.158Z,23.60
2023-04-17T06:07:50.455Z,23.77
2023-04-17T06:10:17.699Z,26.33
2023-04-17T06:12:45.377Z,28.63
2023-04-17T06:15:13.149Z,29.92
2023-04-17T06:17:41.058Z,29.77
2023-04-17T06:20:12.339Z,29.02
2023-04-17T06:22:41.028Z,27.02
2023-04-17T06:25:08.485Z,28.10
2023-04-17T06:27:37.102Z,28.58
2023-04-17T06:30:06.406Z,29.73
2023-04-17T06:32:44.387Z,25.92
2023-04-17T06:35:11.654Z,26.38
2023-04-17T06:37:46.648Z,29.17
2023-04-17T06:40:14.028Z,25.02
2023-04-17T06:42:41.340Z,25.75
2023-04-17T06:45:12.816Z,28.05
2023-04-17T06:47:40.111Z,24.65
2023-04-17T06:50:09.596Z,33.75
2023-04-17T06:52:36.752Z,24.92
2023-04-17T06:55:04.460Z,29.48
2023-04-17T06:57:34.078Z,24.17
2023-04-17T07:00:01.467Z,23.92
2023-04-17T07:02:28.817Z,26.40
2023-04-17T07:04:56.326Z,27.08
2023-04-17T07:07:23.580Z,32.55
2023-04-17T07:09:51.720Z,31.95
2023-04-17T07:12:18.989Z,26.80
2023-04-17T07:14:46.141Z,28.40
2023-04-17T07:17:13.325Z,23.50
2023-04-17T07:19:40.634Z,26.50
2023-04-17T07:22:08.091Z,28.67
2023-04-17T07:24:35.351Z,23.88
2023-04-17T07:27:07.378Z,24.67
2023-04-17T07:29:35.465Z,25.77
2023-04-17T07:32:04.121Z,25.08
2023-04-17T07:34:32.010Z,22.10
2023-04-17T07:36:59.209Z,25.10
2023-04-17T07:39:28.629Z,23.10
2023-04-17T07:41:56.341Z,24.67
2023-04-17T07:44:23.536Z,17.83
2023-04-17T07:46:50.757Z,23.35
2023-04-17T07:49:18.131Z,20.23
2023-04-17T07:51:45.656Z,19.70
2023-04-17T07:54:12.855Z,14.82
2023-04-17T07:56:40.662Z,20.60
2023-04-17T07:59:08.054Z,13.98
2023-04-17T08:01:35.941Z,15.82
2023-04-17T08:04:06.626Z,15.68
2023-04-17T08:06:34.475Z,15.40
2023-04-17T08:09:02.414Z,20.83
2023-04-17T08:11:29.815Z,15.30
2023-04-17T08:13:56.998Z,18.55
2023-04-17T08:16:24.181Z,16.17
2023-04-17T08:18:51.594Z,16.90
2023-04-17T08:21:18.845Z,13.38
2023-04-17T08:23:46.120Z,14.90
2023-04-17T08:26:13.527Z,10.98
2023-04-17T08:28:41.241Z,8.40
2023-04-17T08:31:10.534Z,13.75
2023-04-17T08:33:37.906Z,10.20
2023-04-17T08:36:07.228Z,9.18
2023-04-17T08:38:36.406Z,9.32
2023-04-17T08:41:08.364Z,9.20
2023-04-17T08:43:36.342Z,10.45
2023-04-17T08:46:03.873Z,10.88
2023-04-17T08:48:31.792Z,9.70
2023-04-17T08:50:59.136Z,8.57
2023-04-17T08:53:26.268Z,8.48
2023-04-17T08:55:53.618Z,8.68
2023-04-17T08:58:24.071Z,9.38
2023-04-17T09:00:52.032Z,7.28
2023-04-17T09:03:21.117Z,6.20
2023-04-17T09:05:49.207Z,10.15
2023-04-17T09:08:22.526Z,5.65
2023-04-17T09:10:52.664Z,11.93
2023-04-17T09:13:22.351Z,8.70
2023-04-17T09:16:07.133Z,6.25
2023-04-17T09:18:35.968Z,9.73
2023-04-17T09:21:05.217Z,9.23
2023-04-17T09:23:52.872Z,9.27
2023-04-17T09:26:25.600Z,10.13
2023-04-17T09:29:14.013Z,9.05
2023-04-17T09:31:43.800Z,7.55
2023-04-17T09:34:14.078Z,8.00
2023-04-17T09:36:43.275Z,7.45
2023-04-17T09:39:25.913Z,10.18
2023-04-17T09:42:04.293Z,9.13
2023-04-17T09:44:32.512Z,10.43
2023-04-17T09:47:01.494Z,11.15
2023-04-17T09:49:49.520Z,9.05
2023-04-17T09:52:17.160Z,7.65
2023-04-17T09:54:47.713Z,7.05
2023-04-17T09:57:15.948Z,6.95
2023-04-17T09:59:46.046Z,10.20
2023-04-17T10:02:15.185Z,7.38
2023-04-17T10:04:44.183Z,6.78
2023-04-17T10:07:13.651Z,7.00
2023-04-17T10:09:43.720Z,9.77
2023-04-17T10:12:17.408Z,9.68
2023-04-17T10:14:48.957Z,6.25
2023-04-17T10:17:28.962Z,10.48
2023-04-17T10:19:56.741Z,7.13
2023-04-17T10:22:25.011Z,5.35
2023-04-17T10:25:13.484Z,5.78
2023-04-17T10:27:41.327Z,3.25
2023-04-17T10:30:12.869Z,4.07
2023-04-17T10:32:45.751Z,5.60
2023-04-17T10:35:16.178Z,4.88
2023-04-17T10:37:50.346Z,2.80
2023-04-17T10:40:24.588Z,4.93
2023-04-17T10:43:04.900Z,4.32
2023-04-17T10:45:58.113Z,6.90
2023-04-17T10:48:36.588Z,4.60
2023-04-17T10:51:27.136Z,7.43
2023-04-17T10:53:54.355Z,9.18
2023-04-17T10:56:27.339Z,4.03
2023-04-17T10:59:06.224Z,5.45
2023-04-17T11:01:49.360Z,4.38
2023-04-17T11:04:28.578Z,4.78
2023-04-17T11:06:56.132Z,6.72
2023-04-17T11:09:26.741Z,8.57
2023-04-17T11:11:54.497Z,8.38
2023-04-17T11:14:23.831Z,10.82
2023-04-17T11:16:52.433Z,12.52
2023-04-17T11:19:23.254Z,6.03
2023-04-17T11:21:53.906Z,8.07
2023-04-17T11:24:29.951Z,8.98
2023-04-17T11:27:00.000Z,5.15
2023-04-17T11:29:28.155Z,6.20
2023-04-17T11:31:57.452Z,5.70
2023-04-17T11:34:27.149Z,6.03
2023-04-17T11:37:16.276Z,5.25
2023-04-17T11:39:44.110Z,7.00
2023-04-17T11:42:11.658Z,6.00
2023-04-17T11:44:44.462Z,6.78
2023-04-17T11:47:11.737Z,4.18
2023-04-17T11:49:39.626Z,4.65
2023-04-17T11:52:06.926Z,5.97
2023-04-17T11:54:38.564Z,10.73
2023-04-17T11:57:12.548Z,5.78
2023-04-17T11:59:42.216Z,5.38
2023-04-17T12:02:10.342Z,6.90
2023-04-17T12:04:39.727Z,6.75
2023-04-17T12:07:08.715Z,8.00
2023-04-17T12:09:36.591Z,5.72
2023-04-17T12:12:08.302Z,6.43
2023-04-17T12:14:35.948Z,8.05
2023-04-17T12:17:03.286Z,6.03
2023-04-17T12:19:32.147Z,7.78
2023-04-17T12:21:59.735Z,5.90
2023-04-17T12:24:27.244Z,6.35
2023-04-17T12:26:55.101Z,6.57
2023-04-17T12:29:32.694Z,7.18
2023-04-17T12:32:10.920Z,5.43
2023-04-17T12:34:38.282Z,10.13
2023-04-17T12:37:05.700Z,7.43
2023-04-17T12:39:33.423Z,6.10
2023-04-17T12:42:00.754Z,9.60
2023-04-17T12:44:27.951Z,6.07
2023-04-17T12:46:55.165Z,6.65
2023-04-17T12:49:23.901Z,5.35
2023-04-17T12:51:51.529Z,6.13
2023-04-17T12:54:19.248Z,5.53
2023-04-17T12:56:46.564Z,8.25
2023-04-17T12:59:13.995Z,7.43
2023-04-17T13:01:41.345Z,6.32
2023-04-17T13:04:09.611Z,4.22
2023-04-17T13:06:38.065Z,5.10
2023-04-17T13:09:05.725Z,7.80
2023-04-17T13:11:33.533Z,5.55
2023-04-17T13:14:00.942Z,5.32
2023-04-17T13:16:29.291Z,6.95
2023-04-17T13:18:56.966Z,5.20
2023-04-17T13:21:24.352Z,7.43
2023-04-17T13:23:51.784Z,8.75
2023-04-17T13:26:20.448Z,4.50
2023-04-17T13:28:47.676Z,7.97
2023-04-17T13:31:15.396Z,6.03
2023-04-17T13:33:45.486Z,4.25
2023-04-17T13:36:13.874Z,5.65
2023-04-17T13:38:41.921Z,6.00
2023-04-17T13:41:10.009Z,5.22
2023-04-17T13:43:37.901Z,6.05
2023-04-17T13:46:06.529Z,6.97
2023-04-17T13:48:35.737Z,5.75
2023-04-17T13:51:04.008Z,4.95
2023-04-17T13:53:31.948Z,4.85
2023-04-17T13:56:01.019Z,5.68
2023-04-17T13:58:29.758Z,7.07
2023-04-17T14:00:57.651Z,6.32
2023-04-17T14:03:26.150Z,7.82
2023-04-17T14:05:54.122Z,4.88
2023-04-17T14:08:21.990Z,5.25
2023-04-17T14:10:50.078Z,5.80
2023-04-17T14:13:18.631Z,4.75
2023-04-17T14:15:47.976Z,3.90
2023-04-17T14:18:16.469Z,5.40
2023-04-17T14:20:45.921Z,6.18
2023-04-17T14:23:14.295Z,6.05
2023-04-17T14:25:43.059Z,5.00
2023-04-17T14:28:11.423Z,5.53
2023-04-17T14:30:40.181Z,6.30
2023-04-17T14:33:08.059Z,6.10
2023-04-17T14:35:36.094Z,6.43
2023-04-17T14:38:05.329Z,5.15
2023-04-17T14:40:33.781Z,7.50
2023-04-17T14:43:01.467Z,6.88
2023-04-17T14:45:29.966Z,7.13
2023-04-17T14:47:59.011Z,8.32
2023-04-17T14:50:27.237Z,5.20
2023-04-17T14:52:57.042Z,5.13
2023-04-17T14:55:25.425Z,6.70
2023-04-17T14:57:54.099Z,5.20
2023-04-17T15:00:22.295Z,6.72
2023-04-17T15:02:50.731Z,7.10
2023-04-17T15:05:21.304Z,6.97
2023-04-17T15:07:49.367Z,6.68
2023-04-17T15:10:17.395Z,8.57
2023-04-17T15:12:45.808Z,6.70
2023-04-17T15:15:14.469Z,11.27
2023-04-17T15:17:43.039Z,6.03
2023-04-17T15:20:11.285Z,7.00
2023-04-17T15:22:39.908Z,7.38
2023-04-17T15:25:08.612Z,7.47
2023-04-17T15:27:37.151Z,9.00
2023-04-17T15:30:06.896Z,8.10
2023-04-17T15:32:35.944Z,7.22
2023-04-17T15:35:06.373Z,7.45
2023-04-17T15:37:34.465Z,9.02
2023-04-17T15:40:02.196Z,6.80
2023-04-17T15:42:30.495Z,6.32
2023-04-17T15:44:58.076Z,9.95
2023-04-17T15:47:25.325Z,9.35
2023-04-17T15:49:53.493Z,5.95
2023-04-17T15:52:21.182Z,7.10
2023-04-17T15:54:48.676Z,7.43
2023-04-17T15:57:16.104Z,10.75
2023-04-17T15:59:43.554Z,8.35
2023-04-17T16:02:14.506Z,9.38
2023-04-17T16:04:43.930Z,7.13
2023-04-17T16:07:12.682Z,8.85
2023-04-17T16:09:42.518Z,10.35
2023-04-17T16:12:11.086Z,8.50
2023-04-17T16:14:39.189Z,11.13
2023-04-17T16:17:07.843Z,7.78
2023-04-17T16:19:35.587Z,10.77
2023-04-17T16:22:03.740Z,7.30
2023-04-17T16:24:31.377Z,9.05
2023-04-17T16:27:01.118Z,12.55
2023-04-17T16:29:29.068Z,7.80
2023-04-17T16:31:56.594Z,9.38
2023-04-17T16:34:24.910Z,9.80
2023-04-17T16:36:52.664Z,9.55
2023-04-17T16:39:20.400Z,9.90
2023-04-17T16:41:48.744Z,10.98
2023-04-17T16:44:16.493Z,9.63
2023-04-17T16:46:59.252Z,11.50
2023-04-17T16:49:32.213Z,9.75
2023-04-17T16:52:00.896Z,11.05
2023-04-17T16:54:29.130Z,9.35
2023-04-17T16:56:56.613Z,8.13
2023-04-17T16:59:25.187Z,11.70
2023-04-17T17:01:53.918Z,12.38
2023-04-17T17:04:22.206Z,10.90
2023-04-17T17:06:50.277Z,8.02
2023-04-17T17:09:18.145Z,12.05
2023-04-17T17:11:45.887Z,11.07
2023-04-17T17:14:14.838Z,10.00
2023-04-17T17:16:42.766Z,11.70
2023-04-17T17:19:10.501Z,8.48
2023-04-17T17:21:38.102Z,11.38
2023-04-17T17:24:05.723Z,13.05
2023-04-17T17:26:33.553Z,11.02
2023-04-17T17:29:01.069Z,7.45
2023-04-17T17:31:28.550Z,9.15
2023-04-17T17:33:58.649Z,10.40
2023-04-17T17:36:27.650Z,9.75
2023-04-17T17:39:00.188Z,12.55
2023-04-17T17:41:27.774Z,16.45
2023-04-17T17:43:56.298Z,12.35
2023-04-17T17:46:24.588Z,7.97
2023-04-17T17:48:52.124Z,12.18
2023-04-17T17:51:20.114Z,12.35
2023-04-17T17:53:47.254Z,11.82
2023-04-17T17:56:14.469Z,14.93
2023-04-17T17:58:41.680Z,10.18
2023-04-17T18:01:09.027Z,9.65
2023-04-17T18:03:36.334Z,11.63
2023-04-17T18:06:03.728Z,11.82
2023-04-17T18:08:30.945Z,10.73
2023-04-17T18:10:58.115Z,11.27
2023-04-17T18:13:25.331Z,13.63
2023-04-17T18:15:52.737Z,11.93
2023-04-17T18:18:20.025Z,12.52
2023-04-17T18:20:47.309Z,13.63
2023-04-17T18:23:14.556Z,12.75
2023-04-17T18:25:41.922Z,12.38
2023-04-17T18:28:09.494Z,11.88
2023-04-17T18:30:36.652Z,12.07
2023-04-17T18:33:03.893Z,15.00
2023-04-17T18:35:31.070Z,13.77
2023-04-17T18:37:58.527Z,12.95
2023-04-17T18:40:25.868Z,14.10
2023-04-17T18:42:53.717Z,15.60
2023-04-17T18:45:21.060Z,14.13
2023-04-17T18:47:48.289Z,12.88
2023-04-17T18:50:15.824Z,13.43
2023-04-17T18:52:48.240Z,14.15
2023-04-17T18:55:17.788Z,15.45
2023-04-17T18:57:45.051Z,13.23
2023-04-17T19:00:12.826Z,12.45
2023-04-17T19:02:40.828Z,14.00
2023-04-17T19:05:08.693Z,14.75
2023-04-17T19:07:36.005Z,17.13
2023-04-17T19:10:03.516Z,15.85
2023-04-17T19:12:31.031Z,12.52
2023-04-17T19:14:58.447Z,15.32
2023-04-17T19:17:25.795Z,14.65
2023-04-17T19:19:59.307Z,15.98
2023-04-17T19:22:27.288Z,13.07
2023-04-17T19:24:55.455Z,15.60
2023-04-17T19:27:24.833Z,17.85
2023-04-17T19:29:53.394Z,15.82
2023-04-17T19:32:21.087Z,17.08
2023-04-17T19:34:48.364Z,16.75
2023-04-17T19:37:15.599Z,19.63
2023-04-17T19:39:42.757Z,18.65
2023-04-17T19:42:09.919Z,14.27
2023-04-17T19:44:37.174Z,14.50
2023-04-17T19:47:04.785Z,14.65
2023-04-17T19:49:33.297Z,20.63
2023-04-17T19:52:01.351Z,18.58
2023-04-17T19:54:28.986Z,18.73
2023-04-17T19:56:56.221Z,19.63
2023-04-17T19:59:23.631Z,15.43
2023-04-17T20:01:51.341Z,20.27
2023-04-17T20:04:18.733Z,16.65
2023-04-17T20:06:46.145Z,15.60
2023-04-17T20:09:14.870Z,14.50
2023-04-17T20:11:42.681Z,20.92
2023-04-17T20:14:11.242Z,16.58
2023-04-17T20:16:39.237Z,19.13
2023-04-17T20:19:06.842Z,22.35
2023-04-17T20:21:34.376Z,20.02
2023-04-17T20:24:02.050Z,19.00
2023-04-17T20:26:29.317Z,20.08
2023-04-17T20:28:56.803Z,19.38
2023-04-17T20:31:24.421Z,22.15
2023-04-17T20:33:51.785Z,19.83
2023-04-17T20:36:19.970Z,22.45
2023-04-17T20:38:47.387Z,21.02
2023-04-17T20:41:14.730Z,21.45
2023-04-17T20:43:42.911Z,21.27
2023-04-17T20:46:10.963Z,25.40
2023-04-17T20:48:38.306Z,22.85
2023-04-17T20:51:06.001Z,24.50
2023-04-17T20:53:33.368Z,22.88
2023-04-17T20:56:01.315Z,20.27
2023-04-17T20:58:28.917Z,23.92
2023-04-17T21:01:01.104Z,23.60
2023-04-17T21:03:31.896Z,23.08
2023-04-17T21:05:59.802Z,21.27
2023-04-17T21:08:27.392Z,22.15
2023-04-17T21:10:54.848Z,23.58
2023-04-17T21:13:23.020Z,25.30
2023-04-17T21:15:50.633Z,28.73
2023-04-17T21:18:18.120Z,22.63
2023-04-17T21:20:46.118Z,27.90
2023-04-17T21:23:14.345Z,24.50
2023-04-17T21:25:42.330Z,24.35
2023-04-17T21:28:10.498Z,24.95
2023-04-17T21:30:38.175Z,28.50
2023-04-17T21:33:05.586Z,25.67
2023-04-17T21:35:33.047Z,24.38
2023-04-17T21:38:00.302Z,26.83
2023-04-17T21:40:32.728Z,26.85
2023-04-17T21:43:01.320Z,27.10
2023-04-17T21:45:28.545Z,24.90
2023-04-17T21:47:56.842Z,26.48
2023-04-17T21:50:24.375Z,30.65
2023-04-17T21:52:52.193Z,28.02
2023-04-17T21:55:19.750Z,23.73
2023-04-17T21:57:47.754Z,29.80
2023-04-17T22:00:15.994Z,23.35
2023-04-17T22:02:43.365Z,23.30
2023-04-17T22:05:11.689Z,26.45
2023-04-17T22:07:51.812Z,27.65
2023-04-17T22:10:22.927Z,25.95
2023-04-17T22:12:51.912Z,26.10
2023-04-17T22:15:19.445Z,25.63
2023-04-17T22:17:47.105Z,23.33
2023-04-17T22:20:14.388Z,28.20
2023-04-17T22:22:45.713Z,27.05
2023-04-17T22:25:13.091Z,26.45
2023-04-17T22:27:40.225Z,25.75
2023-04-17T22:30:07.987Z,24.42
2023-04-17T22:32:36.260Z,24.50
2023-04-17T22:35:04.487Z,23.85
2023-04-17T22:37:31.757Z,25.90
2023-04-17T22:39:58.964Z,23.08
2023-04-17T22:42:26.498Z,25.77
2023-04-17T22:44:53.672Z,22.15
2023-04-17T22:47:22.134Z,20.05
2023-04-17T22:49:50.080Z,27.42
2023-04-17T22:52:17.485Z,23.80
2023-04-17T22:54:44.813Z,23.50
2023-04-17T22:57:12.295Z,21.63
2023-04-17T22:59:41.476Z,22.40
2023-04-17T23:02:08.827Z,25.15
2023-04-17T23:04:36.191Z,23.23
2023-04-17T23:07:03.338Z,23.77
2023-04-17T23:09:30.512Z,19.67
2023-04-17T23:11:57.713Z,19.83
2023-04-17T23:14:26.265Z,23.42
2023-04-17T23:16:53.459Z,22.40
2023-04-17T23:19:22.449Z,19.15
2023-04-17T23:21:49.686Z,18.65
2023-04-17T23:24:16.840Z,26.48
2023-04-17T23:26:43.988Z,25.40
2023-04-17T23:29:11.157Z,22.58
2023-04-17T23:31:38.425Z,26.23
2023-04-17T23:34:05.635Z,21.40
2023-04-17T23:36:33.014Z,23.85
2023-04-17T23:39:00.424Z,19.63
2023-04-17T23:41:28.059Z,22.83
2023-04-17T23:43:56.209Z,23.98
2023-04-17T23:46:23.501Z,24.63
2023-04-17T23:48:50.842Z,22.77
2023-04-17T23:51:18.340Z,22.77
2023-04-17T23:53:45.481Z,27.65
2023-04-17T23:56:12.648Z,26.20
2023-04-17T23:58:39.796Z,25.13
